createdAt,value
2018-07-23T00:01:57.031Z,20.00
2018-07-23T00:04:26.033Z,19.95
2018-07-23T00:12:31.369Z,19.87
2018-07-23T00:15:08.727Z,19.83
2018-07-23T00:17:37.533Z,19.75
2018-07-23T00:20:06.707Z,19.68
2018-07-23T00:22:35.591Z,19.63
2018-07-23T00:25:04.562Z,19.61
2018-07-23T00:27:33.196Z,19.59
2018-07-23T00:30:02.704Z,20.24
2018-07-23T00:32:31.360Z,19.78
2018-07-23T00:35:08.295Z,19.70
2018-07-23T00:37:38.857Z,19.64
2018-07-23T00:40:11.251Z,20.26
2018-07-23T00:42:40.717Z,19.79
2018-07-23T00:48:07.615Z,19.61
2018-07-23T00:50:37.966Z,19.55
2018-07-23T00:53:17.101Z,19.50
2018-07-23T00:56:00.488Z,19.45
2018-07-23T00:58:29.453Z,19.40
2018-07-23T01:00:58.275Z,19.35
2018-07-23T01:03:26.908Z,19.31
2018-07-23T01:05:56.462Z,19.29
2018-07-23T01:14:00.401Z,19.43
2018-07-23T01:19:34.441Z,19.94
2018-07-23T01:22:03.420Z,19.44
2018-07-23T01:24:34.154Z,19.99
2018-07-23T01:27:03.704Z,19.49
2018-07-23T01:35:22.992Z,19.19
2018-07-23T01:37:51.647Z,19.11
2018-07-23T01:48:46.755Z,19.00
2018-07-23T01:51:23.031Z,18.97
2018-07-23T01:53:59.299Z,19.63
2018-07-23T01:56:28.171Z,19.15
2018-07-23T01:59:04.608Z,19.05
2018-07-23T02:04:36.249Z,18.96
2018-07-23T02:09:52.556Z,19.56
2018-07-23T02:12:21.242Z,19.10
2018-07-23T02:14:50.556Z,19.02
2018-07-23T02:20:08.546Z,18.89
2018-07-23T02:22:41.046Z,18.88
2018-07-23T02:25:10.656Z,18.84
2018-07-23T02:27:51.190Z,19.44
2018-07-23T02:30:20.288Z,18.94
2018-07-23T02:32:51.264Z,18.86
2018-07-23T02:35:20.061Z,18.82
2018-07-23T02:37:49.068Z,18.78
2018-07-23T02:40:18.355Z,18.74
2018-07-23T02:43:06.266Z,19.33
2018-07-23T02:45:42.527Z,18.83
2018-07-23T02:48:13.439Z,18.71
2018-07-23T02:50:42.230Z,19.30
2018-07-23T02:53:10.967Z,18.79
2018-07-23T02:55:55.078Z,18.65
2018-07-23T03:01:19.160Z,18.50
2018-07-23T03:03:47.818Z,18.46
2018-07-23T03:06:19.591Z,18.43
2018-07-23T03:11:14.143Z,18.34
2018-07-23T03:13:43.990Z,18.29
2018-07-23T03:16:12.715Z,18.27
2018-07-23T03:21:39.563Z,18.21
2018-07-23T03:24:06.444Z,18.18
2018-07-23T03:26:36.655Z,18.17
2018-07-23T03:29:05.475Z,18.14
2018-07-23T03:31:34.819Z,18.12
2018-07-23T03:34:04.603Z,18.11
2018-07-23T03:36:33.442Z,18.07
2018-07-23T03:39:02.400Z,18.02
2018-07-23T03:41:31.088Z,18.63
2018-07-23T03:44:07.690Z,18.78
2018-07-23T03:46:36.703Z,18.88
2018-07-23T03:49:05.432Z,18.97
2018-07-23T03:51:34.080Z,18.38
2018-07-23T03:54:10.623Z,18.22
2018-07-23T03:56:39.299Z,18.08
2018-07-23T03:59:08.018Z,18.76
2018-07-23T04:01:37.873Z,18.20
2018-07-23T04:12:29.308Z,18.16
2018-07-23T04:14:58.637Z,18.14
2018-07-23T04:20:16.117Z,18.87
2018-07-23T04:22:54.484Z,18.38
2018-07-23T04:28:12.076Z,18.33
2018-07-23T04:30:40.821Z,18.37
2018-07-23T04:33:13.490Z,18.43
2018-07-23T04:35:44.895Z,18.50
2018-07-23T04:41:02.818Z,18.64
2018-07-23T04:43:31.564Z,18.73
2018-07-23T04:46:01.440Z,18.79
2018-07-23T04:51:25.256Z,18.92
2018-07-23T04:53:54.253Z,19.00
2018-07-23T04:56:22.952Z,19.08
2018-07-23T05:10:21.912Z,19.68
2018-07-23T05:12:50.756Z,19.66
2018-07-23T05:21:02.275Z,19.79
2018-07-23T05:23:38.953Z,19.89
2018-07-23T05:26:07.788Z,19.99
2018-07-23T05:28:36.481Z,20.85
2018-07-23T05:33:53.283Z,20.43
2018-07-23T05:36:22.742Z,21.23
2018-07-23T05:38:52.030Z,20.72
2018-07-23T05:41:21.643Z,20.66
2018-07-23T05:43:52.203Z,20.69
2018-07-23T05:46:39.148Z,20.74
2018-07-23T05:49:08.112Z,20.78
2018-07-23T05:51:37.369Z,20.83
2018-07-23T05:54:06.054Z,20.90
2018-07-23T05:56:34.742Z,20.96
2018-07-23T05:59:06.212Z,21.07
2018-07-23T06:01:34.935Z,21.18
2018-07-23T06:04:12.779Z,21.30
2018-07-23T06:06:42.239Z,21.43
2018-07-23T06:09:10.819Z,21.56
2018-07-23T06:14:27.153Z,21.74
2018-07-23T06:17:11.663Z,21.77
2018-07-23T06:25:15.785Z,22.39
2018-07-23T06:27:44.618Z,22.56
2018-07-23T06:30:13.293Z,22.65
2018-07-23T06:32:41.984Z,22.80
2018-07-23T06:35:19.814Z,22.92
2018-07-23T06:38:00.902Z,23.03
2018-07-23T06:40:29.745Z,23.26
2018-07-23T06:42:58.415Z,24.40
2018-07-23T06:45:27.184Z,23.97
2018-07-23T06:47:56.188Z,23.90
2018-07-23T06:50:24.810Z,23.91
2018-07-23T06:52:53.479Z,24.87
2018-07-23T06:55:22.099Z,24.38
2018-07-23T06:57:51.788Z,24.28
2018-07-23T07:00:28.059Z,24.29
2018-07-23T07:03:04.388Z,24.44
2018-07-23T07:05:33.024Z,25.51
2018-07-23T07:10:49.318Z,24.78
2018-07-23T07:13:18.309Z,24.82
2018-07-23T07:15:47.855Z,24.89
2018-07-23T07:18:17.026Z,24.92
2018-07-23T07:20:46.109Z,24.95
2018-07-23T07:23:15.219Z,25.11
2018-07-23T07:28:31.895Z,25.31
2018-07-23T07:31:00.526Z,26.51
2018-07-23T07:33:29.164Z,25.78
2018-07-23T07:38:46.347Z,25.61
2018-07-23T07:46:53.981Z,26.69
2018-07-23T07:49:22.648Z,26.89
2018-07-23T07:51:58.949Z,26.98
2018-07-23T07:54:27.598Z,28.11
2018-07-23T07:56:57.148Z,27.19
2018-07-23T07:59:26.511Z,27.17
2018-07-23T08:01:55.348Z,27.30
2018-07-23T08:04:24.496Z,27.40
2018-07-23T08:06:55.640Z,27.56
2018-07-23T08:09:24.523Z,27.85
2018-07-23T08:11:53.446Z,28.02
2018-07-23T08:14:24.168Z,28.17
2018-07-23T08:16:53.575Z,28.23
2018-07-23T08:19:23.183Z,28.20
2018-07-23T08:21:52.824Z,28.31
2018-07-23T08:24:36.765Z,28.34
2018-07-23T08:27:13.622Z,28.40
2018-07-23T08:29:42.388Z,28.43
2018-07-23T08:32:18.770Z,28.36
2018-07-23T08:34:47.409Z,28.35
2018-07-23T08:37:18.867Z,28.38
2018-07-23T08:39:47.501Z,28.34
2018-07-23T08:42:31.786Z,28.25
2018-07-23T08:45:00.475Z,29.34
2018-07-23T08:47:30.753Z,28.37
2018-07-23T08:49:59.432Z,29.37
2018-07-23T08:52:29.823Z,28.67
2018-07-23T08:54:58.495Z,28.51
2018-07-23T08:57:27.166Z,28.33
2018-07-23T08:59:56.740Z,29.53
2018-07-23T09:02:25.807Z,28.81
2018-07-23T09:04:54.416Z,28.87
2018-07-23T09:10:10.633Z,30.45
2018-07-23T09:12:47.296Z,30.52
2018-07-23T09:15:16.056Z,29.61
2018-07-23T09:17:45.855Z,29.51
2018-07-23T09:20:16.192Z,29.39
2018-07-23T09:22:46.724Z,29.26
2018-07-23T09:25:23.235Z,29.24
2018-07-23T09:27:52.662Z,29.40
2018-07-23T09:30:21.661Z,29.46
2018-07-23T09:32:54.763Z,29.53
2018-07-23T09:35:23.828Z,29.59
2018-07-23T09:37:53.381Z,29.63
2018-07-23T09:40:22.223Z,29.62
2018-07-23T09:42:51.531Z,29.71
2018-07-23T09:45:21.507Z,31.03
2018-07-23T09:47:50.660Z,30.27
2018-07-23T09:50:19.731Z,30.22
2018-07-23T09:53:04.498Z,30.31
2018-07-23T09:55:33.715Z,30.39
2018-07-23T09:58:09.997Z,30.31
2018-07-23T10:00:38.655Z,30.41
2018-07-23T10:03:15.419Z,30.53
2018-07-23T10:05:43.956Z,30.69
2018-07-23T10:11:01.292Z,30.92
2018-07-23T10:13:37.460Z,31.05
2018-07-23T10:16:13.725Z,30.99
2018-07-23T10:18:42.357Z,32.34
2018-07-23T10:21:19.461Z,31.47
2018-07-23T10:23:48.283Z,31.39
2018-07-23T10:26:17.232Z,31.54
2018-07-23T10:28:49.652Z,31.66
2018-07-23T10:31:18.971Z,31.66
2018-07-23T10:33:48.000Z,31.61
2018-07-23T10:36:17.238Z,31.69
2018-07-23T10:38:46.824Z,31.70
2018-07-23T10:41:23.096Z,31.74
2018-07-23T10:43:51.990Z,33.09
2018-07-23T10:46:36.038Z,33.38
2018-07-23T10:49:20.628Z,32.37
2018-07-23T10:51:49.286Z,33.54
2018-07-23T10:54:18.914Z,32.63
2018-07-23T10:59:35.129Z,33.96
2018-07-23T11:02:12.011Z,33.06
2018-07-23T11:07:28.397Z,34.03
2018-07-23T11:10:12.358Z,34.13
2018-07-23T11:15:28.496Z,33.35
2018-07-23T11:17:58.143Z,33.27
2018-07-23T11:20:26.762Z,34.14
2018-07-23T11:22:55.397Z,33.32
2018-07-23T11:25:39.177Z,33.30
2018-07-23T11:28:01.814Z,33.23
2018-07-23T11:30:30.871Z,32.79
2018-07-23T11:33:05.030Z,32.48
2018-07-23T11:35:33.992Z,33.44
2018-07-23T11:38:03.381Z,32.33
2018-07-23T11:40:32.226Z,32.46
2018-07-23T11:43:01.268Z,32.31
2018-07-23T11:45:30.198Z,33.60
2018-07-23T11:47:59.484Z,32.84
2018-07-23T11:50:28.229Z,33.02
2018-07-23T11:52:57.877Z,34.25
2018-07-23T11:55:28.098Z,34.30
2018-07-23T11:57:57.193Z,34.12
2018-07-23T12:00:26.358Z,32.79
2018-07-23T12:03:11.915Z,32.63
2018-07-23T12:05:43.253Z,32.43
2018-07-23T12:08:11.836Z,32.22
2018-07-23T12:13:35.256Z,33.08
2018-07-23T12:16:03.874Z,33.31
2018-07-23T12:18:32.522Z,33.29
2018-07-23T12:21:01.168Z,32.74
2018-07-23T12:23:37.781Z,32.26
2018-07-23T12:26:14.053Z,32.28
2018-07-23T12:28:58.343Z,32.60
2018-07-23T12:31:28.055Z,34.06
2018-07-23T12:33:56.714Z,33.31
2018-07-23T12:36:40.720Z,33.37
2018-07-23T12:39:10.180Z,34.65
2018-07-23T12:41:38.773Z,33.67
